sensor_id;sensor_type;location;lat;lon;timestamp;temperature;humidity
64499;SHT31;51087;55.718;21.122;2022-12-18T00:01:36;-10.30;99.99
64499;SHT31;51087;55.718;21.122;2022-12-18T00:04:04;-10.24;99.99
64499;SHT31;51087;55.718;21.122;2022-12-18T00:06:30;-10.18;99.99
64499;SHT31;51087;55.718;21.122;2022-12-18T00:08:59;-10.17;99.99
64499;SHT31;51087;55.718;21.122;2022-12-18T00:11:27;-10.10;99.99
64499;SHT31;51087;55.718;21.122;2022-12-18T00:13:54;-10.06;99.99
64499;SHT31;51087;55.718;21.122;2022-12-18T00:16:22;-10.03;99.99
64499;SHT31;51087;55.718;21.122;2022-12-18T00:18:49;-9.99;99.99
64499;SHT31;51087;55.718;21.122;2022-12-18T00:21:15;-9.97;99.99
64499;SHT31;51087;55.718;21.122;2022-12-18T00:23:42;-9.97;99.99
64499;SHT31;51087;55.718;21.122;2022-12-18T00:26:12;-9.93;99.99
64499;SHT31;51087;55.718;21.122;2022-12-18T00:28:37;-9.95;99.99
64499;SHT31;51087;55.718;21.122;2022-12-18T00:31:09;-9.95;99.99
64499;SHT31;51087;55.718;21.122;2022-12-18T00:33:35;-9.90;99.99
64499;SHT31;51087;55.718;21.122;2022-12-18T00:36:05;-9.89;99.99
64499;SHT31;51087;55.718;21.122;2022-12-18T00:38:30;-9.90;99.99
64499;SHT31;51087;55.718;21.122;2022-12-18T00:40:56;-9.86;99.99
64499;SHT31;51087;55.718;21.122;2022-12-18T00:43:21;-9.85;99.99
64499;SHT31;51087;55.718;21.122;2022-12-18T00:45:47;-9.83;99.99
64499;SHT31;51087;55.718;21.122;2022-12-18T00:48:13;-9.80;99.99
64499;SHT31;51087;55.718;21.122;2022-12-18T00:50:38;-9.76;99.99
64499;SHT31;51087;55.718;21.122;2022-12-18T00:53:04;-9.76;99.99
64499;SHT31;51087;55.718;21.122;2022-12-18T00:55:29;-9.73;99.99
64499;SHT31;51087;55.718;21.122;2022-12-18T00:57:55;-9.72;99.99
64499;SHT31;51087;55.718;21.122;2022-12-18T01:00:20;-9.66;99.99
64499;SHT31;51087;55.718;21.122;2022-12-18T01:02:46;-9.62;99.99
64499;SHT31;51087;55.718;21.122;2022-12-18T01:05:12;-9.58;99.99
64499;SHT31;51087;55.718;21.122;2022-12-18T01:07:37;-9.54;99.99
64499;SHT31;51087;55.718;21.122;2022-12-18T01:10:04;-9.49;99.99
64499;SHT31;51087;55.718;21.122;2022-12-18T01:12:29;-9.47;99.99
64499;SHT31;51087;55.718;21.122;2022-12-18T01:14:55;-9.42;99.99
64499;SHT31;51087;55.718;21.122;2022-12-18T01:17:21;-9.39;99.99
64499;SHT31;51087;55.718;21.122;2022-12-18T01:19:46;-9.34;99.99
64499;SHT31;51087;55.718;21.122;2022-12-18T01:22:11;-9.27;99.99
64499;SHT31;51087;55.718;21.122;2022-12-18T01:24:37;-9.24;99.99
64499;SHT31;51087;55.718;21.122;2022-12-18T01:27:02;-9.17;99.99
64499;SHT31;51087;55.718;21.122;2022-12-18T01:29:28;-9.10;99.99
64499;SHT31;51087;55.718;21.122;2022-12-18T01:31:55;-9.06;99.99
64499;SHT31;51087;55.718;21.122;2022-12-18T01:34:22;-9.03;99.99
64499;SHT31;51087;55.718;21.122;2022-12-18T01:36:47;-8.96;99.99
64499;SHT31;51087;55.718;21.122;2022-12-18T01:39:13;-8.90;99.99
64499;SHT31;51087;55.718;21.122;2022-12-18T01:41:39;-8.89;99.99
64499;SHT31;51087;55.718;21.122;2022-12-18T01:45:25;-8.83;99.99
64499;SHT31;51087;55.718;21.122;2022-12-18T01:47:47;-8.78;99.99
64499;SHT31;51087;55.718;21.122;2022-12-18T01:50:27;-8.75;99.99
64499;SHT31;51087;55.718;21.122;2022-12-18T01:52:58;-8.71;99.99
64499;SHT31;51087;55.718;21.122;2022-12-18T01:55:28;-8.68;99.99
64499;SHT31;51087;55.718;21.122;2022-12-18T01:57:56;-8.63;99.99
64499;SHT31;51087;55.718;21.122;2022-12-18T02:00:23;-8.62;99.99
64499;SHT31;51087;55.718;21.122;2022-12-18T02:02:49;-8.58;99.99
64499;SHT31;51087;55.718;21.122;2022-12-18T02:05:19;-8.58;99.99
64499;SHT31;51087;55.718;21.122;2022-12-18T02:10:36;-8.54;99.99
64499;SHT31;51087;55.718;21.122;2022-12-18T02:15:39;-8.52;99.99
64499;SHT31;51087;55.718;21.122;2022-12-18T02:18:20;-8.51;99.99
64499;SHT31;51087;55.718;21.122;2022-12-18T02:21:12;-8.46;99.99
64499;SHT31;51087;55.718;21.122;2022-12-18T02:26:36;-8.40;99.99
64499;SHT31;51087;55.718;21.122;2022-12-18T02:29:16;-8.35;99.99
64499;SHT31;51087;55.718;21.122;2022-12-18T02:31:47;-8.30;99.99
64499;SHT31;51087;55.718;21.122;2022-12-18T02:34:14;-8.27;99.99
64499;SHT31;51087;55.718;21.122;2022-12-18T02:36:42;-8.23;99.99
64499;SHT31;51087;55.718;21.122;2022-12-18T02:39:11;-8.16;99.99
64499;SHT31;51087;55.718;21.122;2022-12-18T02:41:37;-8.13;99.99
64499;SHT31;51087;55.718;21.122;2022-12-18T02:44:11;-8.06;99.99
64499;SHT31;51087;55.718;21.122;2022-12-18T02:46:45;-8.00;99.99
64499;SHT31;51087;55.718;21.122;2022-12-18T02:57:18;-7.81;99.99
64499;SHT31;51087;55.718;21.122;2022-12-18T03:00:08;-7.74;99.99
64499;SHT31;51087;55.718;21.122;2022-12-18T03:02:41;-7.67;99.99
64499;SHT31;51087;55.718;21.122;2022-12-18T03:05:15;-7.54;99.99
64499;SHT31;51087;55.718;21.122;2022-12-18T03:10:19;-7.37;99.99
64499;SHT31;51087;55.718;21.122;2022-12-18T03:13:13;-7.26;99.99
64499;SHT31;51087;55.718;21.122;2022-12-18T03:15:52;-7.20;99.99
64499;SHT31;51087;55.718;21.122;2022-12-18T03:18:29;-7.12;99.99
64499;SHT31;51087;55.718;21.122;2022-12-18T03:20:58;-6.97;99.99
64499;SHT31;51087;55.718;21.122;2022-12-18T03:23:28;-6.97;99.99
64499;SHT31;51087;55.718;21.122;2022-12-18T03:25:58;-6.88;99.99
64499;SHT31;51087;55.718;21.122;2022-12-18T03:28:27;-6.78;99.99
64499;SHT31;51087;55.718;21.122;2022-12-18T03:30:57;-6.75;99.99
64499;SHT31;51087;55.718;21.122;2022-12-18T03:33:36;-6.71;99.99
64499;SHT31;51087;55.718;21.122;2022-12-18T03:36:03;-6.64;99.99
64499;SHT31;51087;55.718;21.122;2022-12-18T03:38:29;-6.61;99.99
64499;SHT31;51087;55.718;21.122;2022-12-18T03:41:13;-6.54;99.99
64499;SHT31;51087;55.718;21.122;2022-12-18T03:44:13;-6.49;99.99
64499;SHT31;51087;55.718;21.122;2022-12-18T03:47:06;-6.40;99.99
64499;SHT31;51087;55.718;21.122;2022-12-18T03:52:36;-6.34;99.99
64499;SHT31;51087;55.718;21.122;2022-12-18T03:55:04;-6.31;99.99
64499;SHT31;51087;55.718;21.122;2022-12-18T03:57:31;-6.30;99.99
64499;SHT31;51087;55.718;21.122;2022-12-18T04:00:05;-6.23;99.99
64499;SHT31;51087;55.718;21.122;2022-12-18T04:02:31;-6.21;99.99
64499;SHT31;51087;55.718;21.122;2022-12-18T04:05:00;-6.21;99.99
64499;SHT31;51087;55.718;21.122;2022-12-18T04:07:27;-6.18;99.99
64499;SHT31;51087;55.718;21.122;2022-12-18T04:09:55;-6.21;99.99
64499;SHT31;51087;55.718;21.122;2022-12-18T04:12:24;-6.17;99.99
64499;SHT31;51087;55.718;21.122;2022-12-18T04:14:51;-6.24;99.99
64499;SHT31;51087;55.718;21.122;2022-12-18T04:17:16;-6.30;99.99
64499;SHT31;51087;55.718;21.122;2022-12-18T04:19:42;-6.31;99.99
64499;SHT31;51087;55.718;21.122;2022-12-18T04:22:09;-6.31;99.99
64499;SHT31;51087;55.718;21.122;2022-12-18T04:24:35;-6.27;99.99
64499;SHT31;51087;55.718;21.122;2022-12-18T04:27:01;-6.23;99.99
64499;SHT31;51087;55.718;21.122;2022-12-18T04:29:26;-6.18;99.99
64499;SHT31;51087;55.718;21.122;2022-12-18T04:31:51;-6.14;99.99
64499;SHT31;51087;55.718;21.122;2022-12-18T04:34:17;-6.14;99.99
64499;SHT31;51087;55.718;21.122;2022-12-18T04:36:42;-6.11;99.99
64499;SHT31;51087;55.718;21.122;2022-12-18T04:39:08;-6.10;99.99
64499;SHT31;51087;55.718;21.122;2022-12-18T04:41:33;-6.07;99.99
64499;SHT31;51087;55.718;21.122;2022-12-18T04:43:58;-6.06;99.99
64499;SHT31;51087;55.718;21.122;2022-12-18T04:46:24;-6.11;99.99
64499;SHT31;51087;55.718;21.122;2022-12-18T04:48:49;-6.11;99.99
64499;SHT31;51087;55.718;21.122;2022-12-18T04:51:15;-6.17;99.99
64499;SHT31;51087;55.718;21.122;2022-12-18T04:53:40;-6.21;99.99
64499;SHT31;51087;55.718;21.122;2022-12-18T04:56:11;-6.26;99.99
64499;SHT31;51087;55.718;21.122;2022-12-18T04:58:38;-6.28;99.99
64499;SHT31;51087;55.718;21.122;2022-12-18T05:01:04;-6.35;99.99
64499;SHT31;51087;55.718;21.122;2022-12-18T05:03:30;-6.33;99.99
64499;SHT31;51087;55.718;21.122;2022-12-18T05:05:56;-6.30;99.99
64499;SHT31;51087;55.718;21.122;2022-12-18T05:08:22;-6.28;99.99
64499;SHT31;51087;55.718;21.122;2022-12-18T05:10:48;-6.28;99.99
64499;SHT31;51087;55.718;21.122;2022-12-18T05:13:14;-6.23;99.99
64499;SHT31;51087;55.718;21.122;2022-12-18T05:15:39;-6.17;99.99
64499;SHT31;51087;55.718;21.122;2022-12-18T05:18:04;-6.13;99.99
64499;SHT31;51087;55.718;21.122;2022-12-18T05:20:30;-6.09;99.99
64499;SHT31;51087;55.718;21.122;2022-12-18T05:22:56;-6.05;99.99
64499;SHT31;51087;55.718;21.122;2022-12-18T05:25:22;-5.98;99.99
64499;SHT31;51087;55.718;21.122;2022-12-18T05:27:48;-5.95;99.99
64499;SHT31;51087;55.718;21.122;2022-12-18T05:30:15;-5.92;99.99
64499;SHT31;51087;55.718;21.122;2022-12-18T05:32:41;-5.86;99.99
64499;SHT31;51087;55.718;21.122;2022-12-18T05:35:08;-5.81;99.99
64499;SHT31;51087;55.718;21.122;2022-12-18T05:37:34;-5.74;99.99
64499;SHT31;51087;55.718;21.122;2022-12-18T05:40:00;-5.75;99.99
64499;SHT31;51087;55.718;21.122;2022-12-18T05:42:26;-5.69;99.99
64499;SHT31;51087;55.718;21.122;2022-12-18T05:44:51;-5.68;99.99
64499;SHT31;51087;55.718;21.122;2022-12-18T05:47:17;-5.69;99.99
64499;SHT31;51087;55.718;21.122;2022-12-18T05:49:42;-5.75;99.99
64499;SHT31;51087;55.718;21.122;2022-12-18T05:52:08;-5.83;99.99
64499;SHT31;51087;55.718;21.122;2022-12-18T05:54:34;-5.90;99.99
64499;SHT31;51087;55.718;21.122;2022-12-18T05:56:59;-5.98;99.99
64499;SHT31;51087;55.718;21.122;2022-12-18T05:59:25;-6.03;99.99
64499;SHT31;51087;55.718;21.122;2022-12-18T06:01:50;-6.09;99.99
64499;SHT31;51087;55.718;21.122;2022-12-18T06:04:16;-6.05;99.99
64499;SHT31;51087;55.718;21.122;2022-12-18T06:06:42;-6.05;99.99
64499;SHT31;51087;55.718;21.122;2022-12-18T06:09:07;-6.07;99.99
64499;SHT31;51087;55.718;21.122;2022-12-18T06:11:36;-6.05;99.99
64499;SHT31;51087;55.718;21.122;2022-12-18T06:14:01;-6.07;99.99
64499;SHT31;51087;55.718;21.122;2022-12-18T06:16:28;-6.06;99.99
64499;SHT31;51087;55.718;21.122;2022-12-18T06:18:59;-6.05;99.99
64499;SHT31;51087;55.718;21.122;2022-12-18T06:21:24;-6.07;99.99
64499;SHT31;51087;55.718;21.122;2022-12-18T06:23:50;-6.05;99.99
64499;SHT31;51087;55.718;21.122;2022-12-18T06:26:15;-6.05;99.99
64499;SHT31;51087;55.718;21.122;2022-12-18T06:28:41;-6.02;99.99
64499;SHT31;51087;55.718;21.122;2022-12-18T06:31:06;-6.02;99.99
64499;SHT31;51087;55.718;21.122;2022-12-18T06:33:32;-6.02;99.99
64499;SHT31;51087;55.718;21.122;2022-12-18T06:36:16;-5.96;99.99
64499;SHT31;51087;55.718;21.122;2022-12-18T06:38:43;-5.99;99.99
64499;SHT31;51087;55.718;21.122;2022-12-18T06:41:11;-6.00;99.99
64499;SHT31;51087;55.718;21.122;2022-12-18T06:43:37;-6.03;99.99
64499;SHT31;51087;55.718;21.122;2022-12-18T06:46:04;-6.03;99.99
64499;SHT31;51087;55.718;21.122;2022-12-18T06:48:30;-6.07;99.99
64499;SHT31;51087;55.718;21.122;2022-12-18T06:50:55;-6.05;99.99
64499;SHT31;51087;55.718;21.122;2022-12-18T06:53:21;-6.07;99.99
64499;SHT31;51087;55.718;21.122;2022-12-18T06:55:46;-6.05;99.99
64499;SHT31;51087;55.718;21.122;2022-12-18T06:58:11;-6.05;99.99
64499;SHT31;51087;55.718;21.122;2022-12-18T07:00:37;-6.03;99.99
64499;SHT31;51087;55.718;21.122;2022-12-18T07:03:03;-6.03;99.99
64499;SHT31;51087;55.718;21.122;2022-12-18T07:05:28;-6.05;99.99
64499;SHT31;51087;55.718;21.122;2022-12-18T07:07:53;-6.02;99.99
64499;SHT31;51087;55.718;21.122;2022-12-18T07:10:19;-6.05;99.99
64499;SHT31;51087;55.718;21.122;2022-12-18T07:12:45;-6.06;99.99
64499;SHT31;51087;55.718;21.122;2022-12-18T07:15:10;-6.05;99.99
64499;SHT31;51087;55.718;21.122;2022-12-18T07:17:35;-6.06;99.99
64499;SHT31;51087;55.718;21.122;2022-12-18T07:20:01;-6.13;99.99
64499;SHT31;51087;55.718;21.122;2022-12-18T07:22:27;-6.11;99.99
64499;SHT31;51087;55.718;21.122;2022-12-18T07:24:52;-6.11;99.99
64499;SHT31;51087;55.718;21.122;2022-12-18T07:27:18;-6.09;99.99
64499;SHT31;51087;55.718;21.122;2022-12-18T07:29:43;-6.02;99.99
64499;SHT31;51087;55.718;21.122;2022-12-18T07:32:09;-5.93;99.99
64499;SHT31;51087;55.718;21.122;2022-12-18T07:34:34;-5.92;99.99
64499;SHT31;51087;55.718;21.122;2022-12-18T07:36:59;-5.85;99.99
64499;SHT31;51087;55.718;21.122;2022-12-18T07:39:25;-5.81;99.99
64499;SHT31;51087;55.718;21.122;2022-12-18T07:41:50;-5.74;99.99
64499;SHT31;51087;55.718;21.122;2022-12-18T07:44:34;-5.67;99.99
64499;SHT31;51087;55.718;21.122;2022-12-18T07:47:00;-5.62;99.99
64499;SHT31;51087;55.718;21.122;2022-12-18T07:49:25;-5.57;99.99
64499;SHT31;51087;55.718;21.122;2022-12-18T07:51:51;-5.50;99.99
64499;SHT31;51087;55.718;21.122;2022-12-18T07:54:16;-5.46;99.99
64499;SHT31;51087;55.718;21.122;2022-12-18T07:56:42;-5.38;99.99
64499;SHT31;51087;55.718;21.122;2022-12-18T07:59:07;-5.34;99.99
64499;SHT31;51087;55.718;21.122;2022-12-18T08:01:33;-5.28;99.99
64499;SHT31;51087;55.718;21.122;2022-12-18T08:03:58;-5.23;99.99
64499;SHT31;51087;55.718;21.122;2022-12-18T08:06:24;-5.14;99.99
64499;SHT31;51087;55.718;21.122;2022-12-18T08:08:53;-5.03;99.99
64499;SHT31;51087;55.718;21.122;2022-12-18T08:11:19;-4.97;99.99
64499;SHT31;51087;55.718;21.122;2022-12-18T08:13:45;-4.91;99.99
64499;SHT31;51087;55.718;21.122;2022-12-18T08:16:10;-4.89;99.99
64499;SHT31;51087;55.718;21.122;2022-12-18T08:18:36;-4.92;99.99
64499;SHT31;51087;55.718;21.122;2022-12-18T08:21:09;-4.92;99.99
64499;SHT31;51087;55.718;21.122;2022-12-18T08:23:35;-4.85;99.99
64499;SHT31;51087;55.718;21.122;2022-12-18T08:26:01;-4.82;99.99
64499;SHT31;51087;55.718;21.122;2022-12-18T08:28:26;-4.78;99.99
64499;SHT31;51087;55.718;21.122;2022-12-18T08:30:52;-4.72;99.99
64499;SHT31;51087;55.718;21.122;2022-12-18T08:33:17;-4.69;99.99
64499;SHT31;51087;55.718;21.122;2022-12-18T08:35:43;-4.62;99.99
64499;SHT31;51087;55.718;21.122;2022-12-18T08:38:08;-4.60;99.99
64499;SHT31;51087;55.718;21.122;2022-12-18T08:40:34;-4.55;99.99
64499;SHT31;51087;55.718;21.122;2022-12-18T08:42:59;-4.48;99.99
64499;SHT31;51087;55.718;21.122;2022-12-18T08:45:43;-4.43;99.99
64499;SHT31;51087;55.718;21.122;2022-12-18T08:48:09;-4.38;99.99
64499;SHT31;51087;55.718;21.122;2022-12-18T08:50:34;-4.33;99.99
64499;SHT31;51087;55.718;21.122;2022-12-18T08:53:00;-4.24;99.99
64499;SHT31;51087;55.718;21.122;2022-12-18T08:55:25;-4.17;99.99
64499;SHT31;51087;55.718;21.122;2022-12-18T08:57:51;-4.09;99.99
64499;SHT31;51087;55.718;21.122;2022-12-18T09:00:16;-4.02;99.99
64499;SHT31;51087;55.718;21.122;2022-12-18T09:02:42;-3.96;99.99
64499;SHT31;51087;55.718;21.122;2022-12-18T09:05:08;-3.85;99.99
64499;SHT31;51087;55.718;21.122;2022-12-18T09:07:34;-3.81;99.99
64499;SHT31;51087;55.718;21.122;2022-12-18T09:09:59;-3.70;99.99
64499;SHT31;51087;55.718;21.122;2022-12-18T09:12:25;-3.60;99.99
64499;SHT31;51087;55.718;21.122;2022-12-18T09:14:50;-3.52;99.99
64499;SHT31;51087;55.718;21.122;2022-12-18T09:17:16;-3.50;99.99
64499;SHT31;51087;55.718;21.122;2022-12-18T09:19:41;-3.43;99.99
64499;SHT31;51087;55.718;21.122;2022-12-18T09:22:06;-3.39;99.99
64499;SHT31;51087;55.718;21.122;2022-12-18T09:24:32;-3.34;99.99
64499;SHT31;51087;55.718;21.122;2022-12-18T09:26:57;-3.29;99.99
64499;SHT31;51087;55.718;21.122;2022-12-18T09:29:24;-3.23;99.99
64499;SHT31;51087;55.718;21.122;2022-12-18T09:31:49;-3.20;99.99
64499;SHT31;51087;55.718;21.122;2022-12-18T09:34:15;-3.13;99.99
64499;SHT31;51087;55.718;21.122;2022-12-18T09:36:42;-3.13;99.99
64499;SHT31;51087;55.718;21.122;2022-12-18T09:39:07;-3.10;99.99
64499;SHT31;51087;55.718;21.122;2022-12-18T09:44:26;-3.09;99.99
64499;SHT31;51087;55.718;21.122;2022-12-18T09:49:33;-2.99;99.99
64499;SHT31;51087;55.718;21.122;2022-12-18T09:52:23;-2.99;99.99
64499;SHT31;51087;55.718;21.122;2022-12-18T09:54:55;-2.97;99.99
64499;SHT31;51087;55.718;21.122;2022-12-18T09:57:23;-2.93;99.99
64499;SHT31;51087;55.718;21.122;2022-12-18T09:59:57;-2.92;99.99
64499;SHT31;51087;55.718;21.122;2022-12-18T10:02:25;-2.91;99.99
64499;SHT31;51087;55.718;21.122;2022-12-18T10:05:37;-2.86;99.99
64499;SHT31;51087;55.718;21.122;2022-12-18T10:08:16;-2.82;99.99
64499;SHT31;51087;55.718;21.122;2022-12-18T10:10:49;-2.76;99.99
64499;SHT31;51087;55.718;21.122;2022-12-18T10:21:38;-1.30;99.99
64499;SHT31;51087;55.718;21.122;2022-12-18T10:26:48;-0.65;99.99
64499;SHT31;51087;55.718;21.122;2022-12-18T10:29:15;-0.38;99.99
64499;SHT31;51087;55.718;21.122;2022-12-18T10:31:41;-0.27;99.99
64499;SHT31;51087;55.718;21.122;2022-12-18T10:34:11;-0.17;99.99
64499;SHT31;51087;55.718;21.122;2022-12-18T10:36:37;-0.14;99.99
64499;SHT31;51087;55.718;21.122;2022-12-18T10:39:21;-0.13;99.99
64499;SHT31;51087;55.718;21.122;2022-12-18T10:41:47;-0.10;99.99
64499;SHT31;51087;55.718;21.122;2022-12-18T10:44:18;-0.13;99.99
64499;SHT31;51087;55.718;21.122;2022-12-18T10:46:45;-0.10;99.99
64499;SHT31;51087;55.718;21.122;2022-12-18T10:49:31;-0.07;99.99
64499;SHT31;51087;55.718;21.122;2022-12-18T10:52:24;-0.07;99.99
64499;SHT31;51087;55.718;21.122;2022-12-18T10:54:57;-0.10;99.99
64499;SHT31;51087;55.718;21.122;2022-12-18T10:59:58;-0.06;99.99
64499;SHT31;51087;55.718;21.122;2022-12-18T11:02:37;-0.07;99.99
64499;SHT31;51087;55.718;21.122;2022-12-18T11:05:31;-0.06;99.99
64499;SHT31;51087;55.718;21.122;2022-12-18T11:07:59;-0.03;99.99
64499;SHT31;51087;55.718;21.122;2022-12-18T11:10:29;-0.03;99.99
64499;SHT31;51087;55.718;21.122;2022-12-18T11:12:56;-0.05;99.99
64499;SHT31;51087;55.718;21.122;2022-12-18T11:15:26;-0.03;99.99
64499;SHT31;51087;55.718;21.122;2022-12-18T11:17:53;-0.01;99.99
64499;SHT31;51087;55.718;21.122;2022-12-18T11:20:36;0.02;99.99
64499;SHT31;51087;55.718;21.122;2022-12-18T11:23:11;0.09;99.99
64499;SHT31;51087;55.718;21.122;2022-12-18T11:25:37;0.15;99.99
64499;SHT31;51087;55.718;21.122;2022-12-18T11:33:35;0.25;99.99
64499;SHT31;51087;55.718;21.122;2022-12-18T11:36:02;0.33;99.99
64499;SHT31;51087;55.718;21.122;2022-12-18T11:38:35;0.35;99.99
64499;SHT31;51087;55.718;21.122;2022-12-18T11:41:13;0.36;99.99
64499;SHT31;51087;55.718;21.122;2022-12-18T11:43:47;0.48;99.99
64499;SHT31;51087;55.718;21.122;2022-12-18T11:46:23;0.54;99.99
64499;SHT31;51087;55.718;21.122;2022-12-18T11:49:22;0.59;99.99
64499;SHT31;51087;55.718;21.122;2022-12-18T11:52:15;0.60;99.99
64499;SHT31;51087;55.718;21.122;2022-12-18T11:54:41;0.66;99.99
64499;SHT31;51087;55.718;21.122;2022-12-18T11:57:19;0.73;99.99
64499;SHT31;51087;55.718;21.122;2022-12-18T12:00:15;0.77;99.99
64499;SHT31;51087;55.718;21.122;2022-12-18T12:06:01;0.97;99.99
64499;SHT31;51087;55.718;21.122;2022-12-18T12:11:33;1.07;98.83
64499;SHT31;51087;55.718;21.122;2022-12-18T12:14:07;1.12;97.44
64499;SHT31;51087;55.718;21.122;2022-12-18T12:16:39;1.18;97.89
64499;SHT31;51087;55.718;21.122;2022-12-18T12:22:06;1.27;97.46
64499;SHT31;51087;55.718;21.122;2022-12-18T12:32:59;1.45;93.15
64499;SHT31;51087;55.718;21.122;2022-12-18T12:35:44;1.40;93.60
64499;SHT31;51087;55.718;21.122;2022-12-18T12:38:25;1.43;94.83
64499;SHT31;51087;55.718;21.122;2022-12-18T12:41:13;1.42;93.29
64499;SHT31;51087;55.718;21.122;2022-12-18T12:44:01;1.48;92.54
64499;SHT31;51087;55.718;21.122;2022-12-18T12:46:31;1.50;92.50
64499;SHT31;51087;55.718;21.122;2022-12-18T12:49:00;1.52;92.12
64499;SHT31;51087;55.718;21.122;2022-12-18T12:51:33;1.48;92.35
64499;SHT31;51087;55.718;21.122;2022-12-18T12:54:01;1.57;90.72
64499;SHT31;51087;55.718;21.122;2022-12-18T13:04:31;1.57;89.00
64499;SHT31;51087;55.718;21.122;2022-12-18T13:07:10;1.59;89.15
64499;SHT31;51087;55.718;21.122;2022-12-18T13:13:01;1.55;89.77
64499;SHT31;51087;55.718;21.122;2022-12-18T13:15:38;1.48;89.65
64499;SHT31;51087;55.718;21.122;2022-12-18T13:25:54;1.53;89.18
64499;SHT31;51087;55.718;21.122;2022-12-18T13:36:44;1.43;89.32
64499;SHT31;51087;55.718;21.122;2022-12-18T13:41:38;1.38;90.60
64499;SHT31;51087;55.718;21.122;2022-12-18T13:44:36;1.32;91.02
64499;SHT31;51087;55.718;21.122;2022-12-18T13:47:03;1.46;88.94
64499;SHT31;51087;55.718;21.122;2022-12-18T13:51:57;1.28;91.52
64499;SHT31;51087;55.718;21.122;2022-12-18T13:54:33;1.36;89.34
64499;SHT31;51087;55.718;21.122;2022-12-18T13:57:00;1.40;87.80
64499;SHT31;51087;55.718;21.122;2022-12-18T13:59:36;1.40;88.25
64499;SHT31;51087;55.718;21.122;2022-12-18T14:04:36;1.46;86.48
64499;SHT31;51087;55.718;21.122;2022-12-18T14:07:25;1.50;85.75
64499;SHT31;51087;55.718;21.122;2022-12-18T14:10:00;1.43;86.87
64499;SHT31;51087;55.718;21.122;2022-12-18T14:12:34;1.40;85.92
64499;SHT31;51087;55.718;21.122;2022-12-18T14:17:50;1.50;83.83
64499;SHT31;51087;55.718;21.122;2022-12-18T14:20:17;1.50;86.33
64499;SHT31;51087;55.718;21.122;2022-12-18T14:22:45;1.49;86.61
64499;SHT31;51087;55.718;21.122;2022-12-18T14:25:28;1.45;88.50
64499;SHT31;51087;55.718;21.122;2022-12-18T14:30:37;1.40;86.47
64499;SHT31;51087;55.718;21.122;2022-12-18T14:33:21;1.35;86.90
64499;SHT31;51087;55.718;21.122;2022-12-18T14:35:57;1.32;87.62
64499;SHT31;51087;55.718;21.122;2022-12-18T14:38:35;1.35;87.18
64499;SHT31;51087;55.718;21.122;2022-12-18T14:41:03;1.35;86.14
64499;SHT31;51087;55.718;21.122;2022-12-18T14:43:34;1.36;88.46
64499;SHT31;51087;55.718;21.122;2022-12-18T14:46:01;1.38;87.82
64499;SHT31;51087;55.718;21.122;2022-12-18T14:48:38;1.40;88.43
64499;SHT31;51087;55.718;21.122;2022-12-18T14:51:16;1.38;88.26
64499;SHT31;51087;55.718;21.122;2022-12-18T14:53:44;1.32;88.46
64499;SHT31;51087;55.718;21.122;2022-12-18T14:56:17;1.31;89.53
64499;SHT31;51087;55.718;21.122;2022-12-18T14:58:51;1.42;88.15
64499;SHT31;51087;55.718;21.122;2022-12-18T15:01:24;1.36;89.28
64499;SHT31;51087;55.718;21.122;2022-12-18T15:03:52;1.35;89.47
64499;SHT31;51087;55.718;21.122;2022-12-18T15:06:25;1.39;88.33
64499;SHT31;51087;55.718;21.122;2022-12-18T15:08:51;1.32;88.99
64499;SHT31;51087;55.718;21.122;2022-12-18T15:11:35;1.32;89.66
64499;SHT31;51087;55.718;21.122;2022-12-18T15:14:24;1.38;90.27
64499;SHT31;51087;55.718;21.122;2022-12-18T15:16:57;1.39;86.59
64499;SHT31;51087;55.718;21.122;2022-12-18T15:19:48;1.39;85.35
64499;SHT31;51087;55.718;21.122;2022-12-18T15:22:48;1.31;87.02
64499;SHT31;51087;55.718;21.122;2022-12-18T15:25:28;1.38;86.61
64499;SHT31;51087;55.718;21.122;2022-12-18T15:27:56;1.42;85.96
64499;SHT31;51087;55.718;21.122;2022-12-18T15:30:24;1.43;85.66
64499;SHT31;51087;55.718;21.122;2022-12-18T15:32:50;1.38;86.37
64499;SHT31;51087;55.718;21.122;2022-12-18T15:35:24;1.39;86.70
64499;SHT31;51087;55.718;21.122;2022-12-18T15:37:50;1.36;87.05
64499;SHT31;51087;55.718;21.122;2022-12-18T15:40:21;1.36;88.04
64499;SHT31;51087;55.718;21.122;2022-12-18T15:42:48;1.45;88.26
64499;SHT31;51087;55.718;21.122;2022-12-18T15:45:33;1.40;88.61
64499;SHT31;51087;55.718;21.122;2022-12-18T15:47:58;1.42;88.99
64499;SHT31;51087;55.718;21.122;2022-12-18T15:50:24;1.40;88.31
64499;SHT31;51087;55.718;21.122;2022-12-18T15:52:52;1.40;89.07
64499;SHT31;51087;55.718;21.122;2022-12-18T15:55:23;1.35;89.55
64499;SHT31;51087;55.718;21.122;2022-12-18T15:58:09;1.36;88.76
64499;SHT31;51087;55.718;21.122;2022-12-18T16:00:38;1.43;88.30
64499;SHT31;51087;55.718;21.122;2022-12-18T16:03:04;1.42;87.39
64499;SHT31;51087;55.718;21.122;2022-12-18T16:05:30;1.35;88.39
64499;SHT31;51087;55.718;21.122;2022-12-18T16:07:56;1.40;87.73
64499;SHT31;51087;55.718;21.122;2022-12-18T16:10:22;1.35;87.49
64499;SHT31;51087;55.718;21.122;2022-12-18T16:12:49;1.27;89.81
64499;SHT31;51087;55.718;21.122;2022-12-18T16:15:15;1.39;87.62
64499;SHT31;51087;55.718;21.122;2022-12-18T16:17:42;1.19;89.05
64499;SHT31;51087;55.718;21.122;2022-12-18T16:20:16;1.17;88.99
64499;SHT31;51087;55.718;21.122;2022-12-18T16:22:43;1.31;86.98
64499;SHT31;51087;55.718;21.122;2022-12-18T16:25:26;1.27;87.81
64499;SHT31;51087;55.718;21.122;2022-12-18T16:27:52;1.05;90.22
64499;SHT31;51087;55.718;21.122;2022-12-18T16:30:23;1.17;88.85
64499;SHT31;51087;55.718;21.122;2022-12-18T16:32:51;1.14;88.53
64499;SHT31;51087;55.718;21.122;2022-12-18T16:35:16;1.07;89.16
64499;SHT31;51087;55.718;21.122;2022-12-18T16:37:42;1.04;90.38
64499;SHT31;51087;55.718;21.122;2022-12-18T16:40:10;1.02;91.12
64499;SHT31;51087;55.718;21.122;2022-12-18T16:42:38;0.92;90.30
64499;SHT31;51087;55.718;21.122;2022-12-18T16:45:05;1.00;88.47
64499;SHT31;51087;55.718;21.122;2022-12-18T16:47:31;1.04;88.93
64499;SHT31;51087;55.718;21.122;2022-12-18T16:49:57;0.98;89.51
64499;SHT31;51087;55.718;21.122;2022-12-18T16:52:22;1.04;87.86
64499;SHT31;51087;55.718;21.122;2022-12-18T16:54:48;1.11;87.83
64499;SHT31;51087;55.718;21.122;2022-12-18T16:57:15;1.02;88.63
64499;SHT31;51087;55.718;21.122;2022-12-18T16:59:41;1.04;88.75
64499;SHT31;51087;55.718;21.122;2022-12-18T17:02:14;1.07;86.96
64499;SHT31;51087;55.718;21.122;2022-12-18T17:04:41;1.02;88.56
64499;SHT31;51087;55.718;21.122;2022-12-18T17:07:07;1.07;89.02
64499;SHT31;51087;55.718;21.122;2022-12-18T17:09:32;1.05;89.18
64499;SHT31;51087;55.718;21.122;2022-12-18T17:11:58;1.01;89.09
64499;SHT31;51087;55.718;21.122;2022-12-18T17:14:24;0.91;89.21
64499;SHT31;51087;55.718;21.122;2022-12-18T17:16:51;0.94;89.44
64499;SHT31;51087;55.718;21.122;2022-12-18T17:19:16;1.00;90.20
64499;SHT31;51087;55.718;21.122;2022-12-18T17:21:43;0.85;91.29